sensor_id;sensor_type;location;lat;lon;timestamp;pressure;altitude;pressure_sealevel;temperature;humidity
62946;BME280;52164;52.212;-1.010;2023-04-02T00:01:49;100993.96;;;7.31;78.46
62946;BME280;52164;52.212;-1.010;2023-04-02T00:04:15;100999.59;;;7.29;78.22
62946;BME280;52164;52.212;-1.010;2023-04-02T00:06:47;101001.48;;;7.26;78.56
62946;BME280;52164;52.212;-1.010;2023-04-02T00:11:40;101007.77;;;7.21;78.84
62946;BME280;52164;52.212;-1.010;2023-04-02T00:14:23;101008.60;;;7.19;78.99
62946;BME280;52164;52.212;-1.010;2023-04-02T00:16:50;101008.40;;;7.18;79.01
62946;BME280;52164;52.212;-1.010;2023-04-02T00:19:18;101011.58;;;7.16;78.79
62946;BME280;52164;52.212;-1.010;2023-04-02T00:21:45;101014.40;;;7.16;79.33
62946;BME280;52164;52.212;-1.010;2023-04-02T00:24:15;101014.57;;;7.16;79.43
62946;BME280;52164;52.212;-1.010;2023-04-02T00:26:43;101018.13;;;7.16;79.40
62946;BME280;52164;52.212;-1.010;2023-04-02T00:29:09;101017.98;;;7.17;79.54
62946;BME280;52164;52.212;-1.010;2023-04-02T00:31:36;101021.20;;;7.19;79.59
62946;BME280;52164;52.212;-1.010;2023-04-02T00:34:03;101019.62;;;7.20;79.46
62946;BME280;52164;52.212;-1.010;2023-04-02T00:36:29;101022.02;;;7.23;79.68
62946;BME280;52164;52.212;-1.010;2023-04-02T00:39:00;101029.73;;;7.27;79.56
62946;BME280;52164;52.212;-1.010;2023-04-02T00:41:27;101029.20;;;7.27;79.52
62946;BME280;52164;52.212;-1.010;2023-04-02T00:43:54;101030.84;;;7.29;79.42
62946;BME280;52164;52.212;-1.010;2023-04-02T00:46:22;101039.02;;;7.31;79.72
62946;BME280;52164;52.212;-1.010;2023-04-02T00:48:51;101045.79;;;7.31;79.34
62946;BME280;52164;52.212;-1.010;2023-04-02T00:51:23;101050.89;;;7.29;79.39
62946;BME280;52164;52.212;-1.010;2023-04-02T00:53:48;101055.64;;;7.27;79.56
62946;BME280;52164;52.212;-1.010;2023-04-02T00:56:18;101058.96;;;7.24;79.83
62946;BME280;52164;52.212;-1.010;2023-04-02T00:58:49;101062.98;;;7.21;79.79
62946;BME280;52164;52.212;-1.010;2023-04-02T01:01:16;101066.81;;;7.18;79.93
62946;BME280;52164;52.212;-1.010;2023-04-02T01:03:51;101064.80;;;7.16;80.01
62946;BME280;52164;52.212;-1.010;2023-04-02T01:06:17;101071.85;;;7.14;80.17
62946;BME280;52164;52.212;-1.010;2023-04-02T01:08:50;101078.04;;;7.12;80.26
62946;BME280;52164;52.212;-1.010;2023-04-02T01:16:27;101080.29;;;7.09;80.51
62946;BME280;52164;52.212;-1.010;2023-04-02T01:16:57;101079.54;;;7.08;80.57
62946;BME280;52164;52.212;-1.010;2023-04-02T01:21:59;101091.85;;;7.04;80.64
62946;BME280;52164;52.212;-1.010;2023-04-02T01:24:31;101096.63;;;7.02;80.50
62946;BME280;52164;52.212;-1.010;2023-04-02T01:26:58;101100.29;;;7.00;80.85
62946;BME280;52164;52.212;-1.010;2023-04-02T01:29:41;101101.65;;;6.97;80.52
62946;BME280;52164;52.212;-1.010;2023-04-02T01:32:11;101099.18;;;6.98;80.61
62946;BME280;52164;52.212;-1.010;2023-04-02T01:34:37;101104.73;;;7.00;80.74
62946;BME280;52164;52.212;-1.010;2023-04-02T01:38:09;101107.50;;;7.04;80.94
62946;BME280;52164;52.212;-1.010;2023-04-02T01:42:19;101112.83;;;7.12;80.62
62946;BME280;52164;52.212;-1.010;2023-04-02T01:44:49;101113.59;;;7.15;80.58
62946;BME280;52164;52.212;-1.010;2023-04-02T01:47:16;101116.15;;;7.17;80.80
62946;BME280;52164;52.212;-1.010;2023-04-02T01:49:43;101117.48;;;7.22;80.64
62946;BME280;52164;52.212;-1.010;2023-04-02T01:52:11;101118.09;;;7.25;80.51
62946;BME280;52164;52.212;-1.010;2023-04-02T01:54:39;101120.64;;;7.27;80.74
62946;BME280;52164;52.212;-1.010;2023-04-02T01:57:06;101119.23;;;7.29;80.17
62946;BME280;52164;52.212;-1.010;2023-04-02T01:59:31;101120.98;;;7.27;79.90
62946;BME280;52164;52.212;-1.010;2023-04-02T02:02:00;101119.87;;;7.25;79.75
62946;BME280;52164;52.212;-1.010;2023-04-02T02:04:26;101126.23;;;7.23;80.03
62946;BME280;52164;52.212;-1.010;2023-04-02T02:06:52;101129.75;;;7.22;80.03
62946;BME280;52164;52.212;-1.010;2023-04-02T02:09:19;101131.10;;;7.19;80.28
62946;BME280;52164;52.212;-1.010;2023-04-02T02:11:47;101133.36;;;7.18;79.67
62946;BME280;52164;52.212;-1.010;2023-04-02T02:14:15;101136.71;;;7.16;80.24
62946;BME280;52164;52.212;-1.010;2023-04-02T02:16:41;101142.33;;;7.14;79.92
62946;BME280;52164;52.212;-1.010;2023-04-02T02:19:25;101149.23;;;7.12;80.16
62946;BME280;52164;52.212;-1.010;2023-04-02T02:21:53;101147.21;;;7.10;79.97
62946;BME280;52164;52.212;-1.010;2023-04-02T02:24:20;101152.66;;;7.08;80.21
62946;BME280;52164;52.212;-1.010;2023-04-02T02:26:47;101153.84;;;7.05;80.19
62946;BME280;52164;52.212;-1.010;2023-04-02T02:29:16;101153.65;;;7.04;80.24
62946;BME280;52164;52.212;-1.010;2023-04-02T02:31:42;101153.09;;;7.03;79.95
62946;BME280;52164;52.212;-1.010;2023-04-02T02:34:14;101155.40;;;7.03;80.55
62946;BME280;52164;52.212;-1.010;2023-04-02T02:36:42;101161.11;;;7.05;80.43
62946;BME280;52164;52.212;-1.010;2023-04-02T02:41:44;101167.48;;;7.11;80.42
62946;BME280;52164;52.212;-1.010;2023-04-02T02:44:15;101171.64;;;7.14;80.74
62946;BME280;52164;52.212;-1.010;2023-04-02T02:46:43;101169.77;;;7.18;80.47
62946;BME280;52164;52.212;-1.010;2023-04-02T02:49:12;101175.04;;;7.22;80.30
62946;BME280;52164;52.212;-1.010;2023-04-02T02:51:47;101176.16;;;7.25;80.27
62946;BME280;52164;52.212;-1.010;2023-04-02T02:54:14;101177.45;;;7.27;80.33
62946;BME280;52164;52.212;-1.010;2023-04-02T02:56:44;101181.02;;;7.28;79.95
62946;BME280;52164;52.212;-1.010;2023-04-02T02:59:10;101183.50;;;7.28;80.07
62946;BME280;52164;52.212;-1.010;2023-04-02T03:01:40;101185.05;;;7.26;80.21
62946;BME280;52164;52.212;-1.010;2023-04-02T03:04:06;101193.31;;;7.22;79.85
62946;BME280;52164;52.212;-1.010;2023-04-02T03:06:31;101193.00;;;7.17;79.73
62946;BME280;52164;52.212;-1.010;2023-04-02T03:09:01;101200.94;;;7.15;79.92
62946;BME280;52164;52.212;-1.010;2023-04-02T03:11:33;101201.95;;;7.13;79.99
62946;BME280;52164;52.212;-1.010;2023-04-02T03:14:04;101201.17;;;7.10;80.24
62946;BME280;52164;52.212;-1.010;2023-04-02T03:16:35;101202.31;;;7.06;80.21
62946;BME280;52164;52.212;-1.010;2023-04-02T03:19:36;101208.84;;;7.04;80.36
62946;BME280;52164;52.212;-1.010;2023-04-02T03:21:48;101214.94;;;7.00;80.26
62946;BME280;52164;52.212;-1.010;2023-04-02T03:24:16;101221.64;;;6.99;80.47
62946;BME280;52164;52.212;-1.010;2023-04-02T03:26:47;101219.65;;;6.97;80.47
62946;BME280;52164;52.212;-1.010;2023-04-02T03:29:15;101230.48;;;6.97;80.30
62946;BME280;52164;52.212;-1.010;2023-04-02T03:31:44;101231.33;;;6.95;80.38
62946;BME280;52164;52.212;-1.010;2023-04-02T03:37:42;101242.67;;;6.95;80.38
62946;BME280;52164;52.212;-1.010;2023-04-02T03:39:24;101241.63;;;6.96;80.35
62946;BME280;52164;52.212;-1.010;2023-04-02T03:42:01;101243.48;;;6.99;80.48
62946;BME280;52164;52.212;-1.010;2023-04-02T03:44:30;101244.14;;;7.03;80.46
62946;BME280;52164;52.212;-1.010;2023-04-02T03:47:02;101251.13;;;7.06;80.34
62946;BME280;52164;52.212;-1.010;2023-04-02T03:49:45;101257.81;;;7.10;80.51
62946;BME280;52164;52.212;-1.010;2023-04-02T03:52:14;101266.26;;;7.14;80.47
62946;BME280;52164;52.212;-1.010;2023-04-02T03:54:41;101267.91;;;7.16;80.68
62946;BME280;52164;52.212;-1.010;2023-04-02T03:57:17;101273.44;;;7.18;80.10
62946;BME280;52164;52.212;-1.010;2023-04-02T03:59:47;101281.93;;;7.17;79.87
62946;BME280;52164;52.212;-1.010;2023-04-02T04:02:48;101284.95;;;7.17;80.11
62946;BME280;52164;52.212;-1.010;2023-04-02T04:05:02;101289.04;;;7.17;80.03
62946;BME280;52164;52.212;-1.010;2023-04-02T04:07:31;101294.18;;;7.17;80.36
62946;BME280;52164;52.212;-1.010;2023-04-02T04:09:58;101295.77;;;7.16;80.33
62946;BME280;52164;52.212;-1.010;2023-04-02T04:12:27;101297.84;;;7.14;80.03
62946;BME280;52164;52.212;-1.010;2023-04-02T04:15:28;101301.67;;;7.11;80.12
62946;BME280;52164;52.212;-1.010;2023-04-02T04:20:43;101300.17;;;7.02;80.29
62946;BME280;52164;52.212;-1.010;2023-04-02T04:23:16;101311.05;;;6.97;80.76
62946;BME280;52164;52.212;-1.010;2023-04-02T04:25:43;101317.33;;;6.93;80.63
62946;BME280;52164;52.212;-1.010;2023-04-02T04:28:14;101318.80;;;6.88;80.93
62946;BME280;52164;52.212;-1.010;2023-04-02T04:30:46;101316.21;;;6.84;80.73
62946;BME280;52164;52.212;-1.010;2023-04-02T04:33:19;101319.86;;;6.82;80.82
62946;BME280;52164;52.212;-1.010;2023-04-02T04:35:48;101324.54;;;6.78;80.38
62946;BME280;52164;52.212;-1.010;2023-04-02T04:38:16;101330.69;;;6.76;80.49
62946;BME280;52164;52.212;-1.010;2023-04-02T04:40:48;101334.77;;;6.76;80.61
62946;BME280;52164;52.212;-1.010;2023-04-02T04:43:23;101337.95;;;6.76;80.77
62946;BME280;52164;52.212;-1.010;2023-04-02T04:45:54;101344.32;;;6.75;80.96
62946;BME280;52164;52.212;-1.010;2023-04-02T04:48:24;101348.24;;;6.76;80.71
62946;BME280;52164;52.212;-1.010;2023-04-02T04:50:53;101347.73;;;6.76;80.47
62946;BME280;52164;52.212;-1.010;2023-04-02T04:53:24;101349.34;;;6.77;80.30
62946;BME280;52164;52.212;-1.010;2023-04-02T04:55:51;101352.23;;;6.79;80.09
62946;BME280;52164;52.212;-1.010;2023-04-02T04:59:23;101358.84;;;6.80;80.05
62946;BME280;52164;52.212;-1.010;2023-04-02T05:01:04;101367.78;;;6.82;79.83
62946;BME280;52164;52.212;-1.010;2023-04-02T05:04:36;101373.47;;;6.83;80.06
62946;BME280;52164;52.212;-1.010;2023-04-02T05:08:29;101372.63;;;6.84;79.85
62946;BME280;52164;52.212;-1.010;2023-04-02T05:09:06;101371.52;;;6.82;79.67
62946;BME280;52164;52.212;-1.010;2023-04-02T05:11:36;101377.85;;;6.81;79.55
62946;BME280;52164;52.212;-1.010;2023-04-02T05:14:05;101387.20;;;6.79;79.49
62946;BME280;52164;52.212;-1.010;2023-04-02T05:16:48;101385.70;;;6.76;79.54
62946;BME280;52164;52.212;-1.010;2023-04-02T05:19:16;101394.48;;;6.73;79.68
62946;BME280;52164;52.212;-1.010;2023-04-02T05:21:43;101399.92;;;6.72;79.63
62946;BME280;52164;52.212;-1.010;2023-04-02T05:24:27;101400.74;;;6.69;79.51
62946;BME280;52164;52.212;-1.010;2023-04-02T05:26:56;101407.41;;;6.67;79.75
62946;BME280;52164;52.212;-1.010;2023-04-02T05:29:26;101406.64;;;6.65;79.75
62946;BME280;52164;52.212;-1.010;2023-04-02T05:32:10;101406.05;;;6.63;79.92
62946;BME280;52164;52.212;-1.010;2023-04-02T05:34:37;101410.56;;;6.60;79.69
62946;BME280;52164;52.212;-1.010;2023-04-02T05:37:04;101411.21;;;6.58;79.90
62946;BME280;52164;52.212;-1.010;2023-04-02T05:39:33;101413.45;;;6.55;80.00
62946;BME280;52164;52.212;-1.010;2023-04-02T05:42:00;101416.75;;;6.53;79.77
62946;BME280;52164;52.212;-1.010;2023-04-02T05:44:29;101418.44;;;6.50;79.75
62946;BME280;52164;52.212;-1.010;2023-04-02T05:46:56;101423.93;;;6.50;79.99
62946;BME280;52164;52.212;-1.010;2023-04-02T05:49:25;101427.52;;;6.51;79.77
62946;BME280;52164;52.212;-1.010;2023-04-02T05:51:54;101440.52;;;6.52;80.01
62946;BME280;52164;52.212;-1.010;2023-04-02T05:54:26;101447.02;;;6.57;79.98
62946;BME280;52164;52.212;-1.010;2023-04-02T05:56:56;101452.20;;;6.58;80.00
62946;BME280;52164;52.212;-1.010;2023-04-02T05:59:25;101459.84;;;6.59;79.83
62946;BME280;52164;52.212;-1.010;2023-04-02T06:01:54;101461.52;;;6.61;80.21
62946;BME280;52164;52.212;-1.010;2023-04-02T06:04:57;101465.50;;;6.64;80.11
62946;BME280;52164;52.212;-1.010;2023-04-02T06:07:13;101471.11;;;6.67;80.09
62946;BME280;52164;52.212;-1.010;2023-04-02T06:09:41;101478.30;;;6.70;79.66
62946;BME280;52164;52.212;-1.010;2023-04-02T06:12:20;101482.60;;;6.72;79.52
62946;BME280;52164;52.212;-1.010;2023-04-02T06:14:46;101493.76;;;6.71;78.93
62946;BME280;52164;52.212;-1.010;2023-04-02T06:17:13;101495.48;;;6.69;78.77
62946;BME280;52164;52.212;-1.010;2023-04-02T06:19:40;101494.59;;;6.69;78.55
62946;BME280;52164;52.212;-1.010;2023-04-02T06:22:07;101494.59;;;6.69;78.42
62946;BME280;52164;52.212;-1.010;2023-04-02T06:24:34;101497.56;;;6.67;78.16
62946;BME280;52164;52.212;-1.010;2023-04-02T06:27:02;101496.06;;;6.66;78.18
62946;BME280;52164;52.212;-1.010;2023-04-02T06:29:31;101504.19;;;6.64;78.36
62946;BME280;52164;52.212;-1.010;2023-04-02T06:32:03;101509.97;;;6.61;78.15
62946;BME280;52164;52.212;-1.010;2023-04-02T06:34:31;101503.66;;;6.59;77.96
62946;BME280;52164;52.212;-1.010;2023-04-02T06:36:57;101507.46;;;6.56;77.97
62946;BME280;52164;52.212;-1.010;2023-04-02T06:39:24;101507.03;;;6.53;77.88
62946;BME280;52164;52.212;-1.010;2023-04-02T06:41:58;101513.88;;;6.51;77.73
62946;BME280;52164;52.212;-1.010;2023-04-02T06:44:26;101526.67;;;6.52;77.69
62946;BME280;52164;52.212;-1.010;2023-04-02T06:46:55;101528.02;;;6.50;77.43
62946;BME280;52164;52.212;-1.010;2023-04-02T06:51:49;101527.20;;;6.46;77.61
62946;BME280;52164;52.212;-1.010;2023-04-02T06:54:17;101527.00;;;6.45;77.75
62946;BME280;52164;52.212;-1.010;2023-04-02T06:56:45;101530.20;;;6.45;77.69
62946;BME280;52164;52.212;-1.010;2023-04-02T06:59:11;101536.45;;;6.47;77.93
62946;BME280;52164;52.212;-1.010;2023-04-02T07:01:39;101537.98;;;6.50;77.89
62946;BME280;52164;52.212;-1.010;2023-04-02T07:04:05;101541.65;;;6.54;77.66
62946;BME280;52164;52.212;-1.010;2023-04-02T07:06:31;101547.62;;;6.58;77.24
62946;BME280;52164;52.212;-1.010;2023-04-02T07:08:58;101553.70;;;6.59;77.28
62946;BME280;52164;52.212;-1.010;2023-04-02T07:11:23;101562.30;;;6.62;77.19
62946;BME280;52164;52.212;-1.010;2023-04-02T07:13:48;101564.77;;;6.67;77.45
62946;BME280;52164;52.212;-1.010;2023-04-02T07:16:15;101569.23;;;6.73;77.23
62946;BME280;52164;52.212;-1.010;2023-04-02T07:18:41;101568.09;;;6.81;76.83
62946;BME280;52164;52.212;-1.010;2023-04-02T07:21:07;101572.08;;;6.90;76.86
62946;BME280;52164;52.212;-1.010;2023-04-02T07:23:32;101575.72;;;6.98;76.44
62946;BME280;52164;52.212;-1.010;2023-04-02T07:25:57;101580.55;;;7.05;76.02
62946;BME280;52164;52.212;-1.010;2023-04-02T07:28:23;101592.38;;;7.09;75.20
62946;BME280;52164;52.212;-1.010;2023-04-02T07:30:49;101600.06;;;7.11;74.85
62946;BME280;52164;52.212;-1.010;2023-04-02T07:33:15;101601.88;;;7.12;74.56
62946;BME280;52164;52.212;-1.010;2023-04-02T07:35:42;101604.96;;;7.14;74.49
62946;BME280;52164;52.212;-1.010;2023-04-02T07:38:07;101601.67;;;7.17;73.84
62946;BME280;52164;52.212;-1.010;2023-04-02T07:40:33;101603.49;;;7.18;73.54
62946;BME280;52164;52.212;-1.010;2023-04-02T07:42:58;101606.56;;;7.20;73.44
62946;BME280;52164;52.212;-1.010;2023-04-02T07:45:24;101613.14;;;7.26;73.44
62946;BME280;52164;52.212;-1.010;2023-04-02T07:47:52;101615.30;;;7.32;73.48
62946;BME280;52164;52.212;-1.010;2023-04-02T07:50:17;101618.98;;;7.37;73.27
62946;BME280;52164;52.212;-1.010;2023-04-02T07:52:43;101622.11;;;7.41;72.86
62946;BME280;52164;52.212;-1.010;2023-04-02T07:55:09;101624.94;;;7.46;72.91
62946;BME280;52164;52.212;-1.010;2023-04-02T07:57:38;101626.50;;;7.50;72.50
62946;BME280;52164;52.212;-1.010;2023-04-02T08:00:06;101627.31;;;7.53;72.52
62946;BME280;52164;52.212;-1.010;2023-04-02T08:02:32;101636.15;;;7.58;72.25
62946;BME280;52164;52.212;-1.010;2023-04-02T08:04:57;101634.38;;;7.64;72.31
62946;BME280;52164;52.212;-1.010;2023-04-02T08:07:22;101639.34;;;7.70;72.27
62946;BME280;52164;52.212;-1.010;2023-04-02T08:09:48;101638.67;;;7.77;71.87
62946;BME280;52164;52.212;-1.010;2023-04-02T08:12:14;101643.02;;;7.86;71.69
62946;BME280;52164;52.212;-1.010;2023-04-02T08:14:39;101649.17;;;7.96;71.58
62946;BME280;52164;52.212;-1.010;2023-04-02T08:17:05;101657.59;;;8.05;71.39
62946;BME280;52164;52.212;-1.010;2023-04-02T08:19:30;101661.88;;;8.12;70.73
62946;BME280;52164;52.212;-1.010;2023-04-02T08:21:57;101662.23;;;8.18;70.44
62946;BME280;52164;52.212;-1.010;2023-04-02T08:24:22;101661.65;;;8.22;70.04
62946;BME280;52164;52.212;-1.010;2023-04-02T08:26:48;101663.42;;;8.28;70.21
62946;BME280;52164;52.212;-1.010;2023-04-02T08:29:14;101668.57;;;8.34;69.80
62946;BME280;52164;52.212;-1.010;2023-04-02T08:31:40;101671.98;;;8.36;69.00
62946;BME280;52164;52.212;-1.010;2023-04-02T08:34:05;101675.58;;;8.38;69.26
62946;BME280;52164;52.212;-1.010;2023-04-02T08:36:33;101674.27;;;8.41;69.39
62946;BME280;52164;52.212;-1.010;2023-04-02T08:38:58;101678.86;;;8.46;69.32
62946;BME280;52164;52.212;-1.010;2023-04-02T08:41:24;101678.91;;;8.54;68.77
62946;BME280;52164;52.212;-1.010;2023-04-02T08:48:50;101679.42;;;8.80;67.73
62946;BME280;52164;52.212;-1.010;2023-04-02T08:51:21;101680.71;;;8.89;67.52
62946;BME280;52164;52.212;-1.010;2023-04-02T08:53:47;101683.55;;;8.96;67.54
62946;BME280;52164;52.212;-1.010;2023-04-02T08:56:15;101689.11;;;9.04;67.46
62946;BME280;52164;52.212;-1.010;2023-04-02T08:58:46;101686.83;;;9.13;67.18
62946;BME280;52164;52.212;-1.010;2023-04-02T09:02:22;101690.25;;;9.22;66.60
62946;BME280;52164;52.212;-1.010;2023-04-02T09:03:59;101698.27;;;9.28;66.67
62946;BME280;52164;52.212;-1.010;2023-04-02T09:06:25;101700.00;;;9.34;65.99
62946;BME280;52164;52.212;-1.010;2023-04-02T09:08:52;101697.05;;;9.45;65.85
62946;BME280;52164;52.212;-1.010;2023-04-02T09:11:22;101699.99;;;9.57;65.58
62946;BME280;52164;52.212;-1.010;2023-04-02T09:13:51;101705.25;;;9.69;65.11
62946;BME280;52164;52.212;-1.010;2023-04-02T09:16:18;101702.66;;;9.80;64.95
62946;BME280;52164;52.212;-1.010;2023-04-02T09:18:46;101704.66;;;9.91;64.75
62946;BME280;52164;52.212;-1.010;2023-04-02T09:21:30;101708.81;;;10.00;64.66
62946;BME280;52164;52.212;-1.010;2023-04-02T09:23:55;101711.33;;;10.10;64.33
62946;BME280;52164;52.212;-1.010;2023-04-02T09:28:49;101722.08;;;10.21;64.23
62946;BME280;52164;52.212;-1.010;2023-04-02T09:31:19;101727.16;;;10.25;63.37
62946;BME280;52164;52.212;-1.010;2023-04-02T09:33:47;101730.41;;;10.27;63.33
62946;BME280;52164;52.212;-1.010;2023-04-02T09:36:17;101736.49;;;10.35;63.63
62946;BME280;52164;52.212;-1.010;2023-04-02T09:38:55;101738.14;;;10.45;63.47
62946;BME280;52164;52.212;-1.010;2023-04-02T09:41:21;101737.96;;;10.54;62.86
62946;BME280;52164;52.212;-1.010;2023-04-02T09:43:47;101744.29;;;10.58;62.78
62946;BME280;52164;52.212;-1.010;2023-04-02T09:48:39;101751.34;;;10.64;62.16
62946;BME280;52164;52.212;-1.010;2023-04-02T09:53:36;101748.34;;;10.65;61.62
62946;BME280;52164;52.212;-1.010;2023-04-02T09:56:11;101751.44;;;10.68;61.45
62946;BME280;52164;52.212;-1.010;2023-04-02T09:58:38;101751.41;;;10.76;61.36
62946;BME280;52164;52.212;-1.010;2023-04-02T10:01:04;101747.05;;;10.82;61.73
62946;BME280;52164;52.212;-1.010;2023-04-02T10:03:32;101753.92;;;10.86;61.57
62946;BME280;52164;52.212;-1.010;2023-04-02T10:06:14;101753.80;;;10.90;60.89
62946;BME280;52164;52.212;-1.010;2023-04-02T10:08:41;101761.92;;;10.94;60.71
62946;BME280;52164;52.212;-1.010;2023-04-02T10:11:09;101763.29;;;11.00;60.51
62946;BME280;52164;52.212;-1.010;2023-04-02T10:13:55;101761.18;;;11.12;60.29
62946;BME280;52164;52.212;-1.010;2023-04-02T10:16:24;101762.25;;;11.22;60.13
62946;BME280;52164;52.212;-1.010;2023-04-02T10:21:20;101758.99;;;11.30;59.46
62946;BME280;52164;52.212;-1.010;2023-04-02T10:23:47;101765.32;;;11.35;59.33
62946;BME280;52164;52.212;-1.010;2023-04-02T10:33:31;101783.72;;;11.56;59.36
62946;BME280;52164;52.212;-1.010;2023-04-02T10:38:42;101783.09;;;11.73;59.40
62946;BME280;52164;52.212;-1.010;2023-04-02T10:41:20;101789.77;;;11.88;59.27
62946;BME280;52164;52.212;-1.010;2023-04-02T10:43:53;101785.27;;;12.09;58.89
62946;BME280;52164;52.212;-1.010;2023-04-02T10:48:59;101792.26;;;12.22;58.72
62946;BME280;52164;52.212;-1.010;2023-04-02T10:53:47;101795.49;;;12.23;59.17
62946;BME280;52164;52.212;-1.010;2023-04-02T10:54:32;101804.34;;;12.16;58.75
62946;BME280;52164;52.212;-1.010;2023-04-02T10:57:05;101805.88;;;12.11;58.71
62946;BME280;52164;52.212;-1.010;2023-04-02T10:59:33;101815.05;;;12.14;58.60
62946;BME280;52164;52.212;-1.010;2023-04-02T11:02:00;101815.75;;;12.13;58.44
62946;BME280;52164;52.212;-1.010;2023-04-02T11:04:29;101815.59;;;12.13;58.43
62946;BME280;52164;52.212;-1.010;2023-04-02T11:07:13;101810.64;;;12.18;57.64
62946;BME280;52164;52.212;-1.010;2023-04-02T11:09:42;101812.57;;;12.16;57.89
62946;BME280;52164;52.212;-1.010;2023-04-02T11:12:10;101816.44;;;12.24;57.53
62946;BME280;52164;52.212;-1.010;2023-04-02T11:14:41;101808.71;;;12.35;57.57
62946;BME280;52164;52.212;-1.010;2023-04-02T11:17:10;101817.09;;;12.32;57.11
62946;BME280;52164;52.212;-1.010;2023-04-02T11:19:37;101820.61;;;12.28;56.54
62946;BME280;52164;52.212;-1.010;2023-04-02T11:22:34;101813.98;;;12.27;56.45
62946;BME280;52164;52.212;-1.010;2023-04-02T11:24:48;101818.39;;;12.49;56.80
62946;BME280;52164;52.212;-1.010;2023-04-02T11:27:17;101818.34;;;12.60;56.57
62946;BME280;52164;52.212;-1.010;2023-04-02T11:29:46;101815.96;;;12.56;56.41
62946;BME280;52164;52.212;-1.010;2023-04-02T11:32:21;101812.44;;;12.46;56.34
62946;BME280;52164;52.212;-1.010;2023-04-02T11:37:49;101817.14;;;12.49;56.44
62946;BME280;52164;52.212;-1.010;2023-04-02T11:42:50;101829.52;;;12.51;55.39
62946;BME280;52164;52.212;-1.010;2023-04-02T11:47:43;101834.31;;;13.09;55.30
62946;BME280;52164;52.212;-1.010;2023-04-02T11:50:34;101834.85;;;13.59;54.77
62946;BME280;52164;52.212;-1.010;2023-04-02T11:55:26;101821.63;;;14.49;52.74
62946;BME280;52164;52.212;-1.010;2023-04-02T11:58:01;101824.16;;;14.96;52.46
62946;BME280;52164;52.212;-1.010;2023-04-02T12:00:35;101833.41;;;15.27;52.06
62946;BME280;52164;52.212;-1.010;2023-04-02T12:05:22;101840.60;;;15.31;51.69
62946;BME280;52164;52.212;-1.010;2023-04-02T12:05:58;101844.92;;;15.32;51.54
62946;BME280;52164;52.212;-1.010;2023-04-02T12:08:32;101844.55;;;15.22;51.61
62946;BME280;52164;52.212;-1.010;2023-04-02T12:11:01;101843.44;;;15.11;50.93
62946;BME280;52164;52.212;-1.010;2023-04-02T12:13:56;101846.83;;;15.05;51.34
62946;BME280;52164;52.212;-1.010;2023-04-02T12:16:12;101850.38;;;14.86;50.86
62946;BME280;52164;52.212;-1.010;2023-04-02T12:18:46;101854.73;;;14.58;51.42
62946;BME280;52164;52.212;-1.010;2023-04-02T12:21:13;101860.67;;;14.32;50.89
62946;BME280;52164;52.212;-1.010;2023-04-02T12:23:40;101866.17;;;14.20;51.37
62946;BME280;52164;52.212;-1.010;2023-04-02T12:26:23;101870.73;;;14.06;50.68
62946;BME280;52164;52.212;-1.010;2023-04-02T12:28:50;101878.55;;;13.94;50.38
62946;BME280;52164;52.212;-1.010;2023-04-02T12:31:15;101875.98;;;14.12;50.49
62946;BME280;52164;52.212;-1.010;2023-04-02T12:33:42;101872.69;;;14.57;50.65
62946;BME280;52164;52.212;-1.010;2023-04-02T12:36:19;101873.05;;;14.93;50.09
62946;BME280;52164;52.212;-1.010;2023-04-02T12:38:47;101872.55;;;15.07;49.80
62946;BME280;52164;52.212;-1.010;2023-04-02T12:41:18;101876.55;;;15.21;50.09
62946;BME280;52164;52.212;-1.010;2023-04-02T12:43:55;101879.61;;;15.21;49.56
62946;BME280;52164;52.212;-1.010;2023-04-02T12:46:21;101878.20;;;15.32;50.03
62946;BME280;52164;52.212;-1.010;2023-04-02T12:48:48;101882.55;;;15.54;49.81
62946;BME280;52164;52.212;-1.010;2023-04-02T12:51:13;101880.61;;;15.80;49.93
62946;BME280;52164;52.212;-1.010;2023-04-02T12:53:40;101886.75;;;16.02;49.18
62946;BME280;52164;52.212;-1.010;2023-04-02T12:56:06;101879.71;;;16.04;48.24
62946;BME280;52164;52.212;-1.010;2023-04-02T12:58:35;101886.39;;;15.95;47.75
62946;BME280;52164;52.212;-1.010;2023-04-02T13:01:17;101882.44;;;15.97;47.70
62946;BME280;52164;52.212;-1.010;2023-04-02T13:04:00;101882.94;;;16.29;48.18
62946;BME280;52164;52.212;-1.010;2023-04-02T13:06:26;101880.17;;;16.51;47.36
62946;BME280;52164;52.212;-1.010;2023-04-02T13:08:53;101882.16;;;16.53;47.40
62946;BME280;52164;52.212;-1.010;2023-04-02T13:11:18;101882.89;;;16.44;47.69
62946;BME280;52164;52.212;-1.010;2023-04-02T13:13:45;101886.72;;;16.25;47.62
62946;BME280;52164;52.212;-1.010;2023-04-02T13:18:38;101890.70;;;15.94;47.74
62946;BME280;52164;52.212;-1.010;2023-04-02T13:21:04;101893.05;;;16.01;47.97
62946;BME280;52164;52.212;-1.010;2023-04-02T13:23:31;101893.03;;;16.17;48.78
62946;BME280;52164;52.212;-1.010;2023-04-02T13:25:58;101892.14;;;16.11;48.35
62946;BME280;52164;52.212;-1.010;2023-04-02T13:28:24;101890.52;;;15.95;48.17
62946;BME280;52164;52.212;-1.010;2023-04-02T13:30:49;101893.39;;;15.75;47.89
62946;BME280;52164;52.212;-1.010;2023-04-02T13:33:15;101896.77;;;15.52;47.94
62946;BME280;52164;52.212;-1.010;2023-04-02T13:35:41;101897.83;;;15.43;48.14
62946;BME280;52164;52.212;-1.010;2023-04-02T13:38:07;101900.38;;;15.54;48.60
62946;BME280;52164;52.212;-1.010;2023-04-02T13:40:33;101896.39;;;15.43;48.07
62946;BME280;52164;52.212;-1.010;2023-04-02T13:42:59;101896.16;;;15.18;47.79
62946;BME280;52164;52.212;-1.010;2023-04-02T13:45:28;101897.14;;;14.91;47.46
62946;BME280;52164;52.212;-1.010;2023-04-02T13:47:55;101896.88;;;15.19;47.94
62946;BME280;52164;52.212;-1.010;2023-04-02T13:50:25;101888.33;;;15.78;47.27
62946;BME280;52164;52.212;-1.010;2023-04-02T13:52:51;101884.70;;;16.45;47.07
62946;BME280;52164;52.212;-1.010;2023-04-02T13:55:18;101882.45;;;16.73;45.99
62946;BME280;52164;52.212;-1.010;2023-04-02T13:57:44;101882.25;;;16.77;46.21
62946;BME280;52164;52.212;-1.010;2023-04-02T14:00:11;101879.88;;;16.86;45.65
62946;BME280;52164;52.212;-1.010;2023-04-02T14:02:39;101880.19;;;17.83;44.48